sensor_id;sensor_type;location;lat;lon;timestamp;temperature;humidity
52513;DHT22;38422;53.172;6.974;2023-04-25T00:01:21;7.90;99.90
52513;DHT22;38422;53.172;6.974;2023-04-25T00:03:52;7.90;99.90
52513;DHT22;38422;53.172;6.974;2023-04-25T00:06:19;7.90;99.90
52513;DHT22;38422;53.172;6.974;2023-04-25T00:08:44;7.90;99.90
52513;DHT22;38422;53.172;6.974;2023-04-25T00:11:10;7.90;99.90
52513;DHT22;38422;53.172;6.974;2023-04-25T00:13:36;7.90;99.90
52513;DHT22;38422;53.172;6.974;2023-04-25T00:16:02;7.90;99.90
52513;DHT22;38422;53.172;6.974;2023-04-25T00:18:28;7.80;99.90
52513;DHT22;38422;53.172;6.974;2023-04-25T00:20:58;7.80;99.90
52513;DHT22;38422;53.172;6.974;2023-04-25T00:23:24;7.80;99.90
52513;DHT22;38422;53.172;6.974;2023-04-25T00:25:50;7.70;99.90
52513;DHT22;38422;53.172;6.974;2023-04-25T00:28:16;7.70;99.90
52513;DHT22;38422;53.172;6.974;2023-04-25T00:30:43;7.80;99.90
52513;DHT22;38422;53.172;6.974;2023-04-25T00:33:09;7.70;99.90
52513;DHT22;38422;53.172;6.974;2023-04-25T00:46:32;7.70;99.90
52513;DHT22;38422;53.172;6.974;2023-04-25T00:48:58;7.70;99.90
52513;DHT22;38422;53.172;6.974;2023-04-25T00:51:24;7.70;99.90
52513;DHT22;38422;53.172;6.974;2023-04-25T00:53:51;7.60;99.90
52513;DHT22;38422;53.172;6.974;2023-04-25T00:56:17;7.60;99.90
52513;DHT22;38422;53.172;6.974;2023-04-25T00:58:43;7.60;99.90
52513;DHT22;38422;53.172;6.974;2023-04-25T01:01:10;7.60;99.90
52513;DHT22;38422;53.172;6.974;2023-04-25T01:03:40;7.60;99.90
52513;DHT22;38422;53.172;6.974;2023-04-25T01:06:10;7.60;99.90
52513;DHT22;38422;53.172;6.974;2023-04-25T01:08:38;7.60;99.90
52513;DHT22;38422;53.172;6.974;2023-04-25T01:11:04;7.50;99.90
52513;DHT22;38422;53.172;6.974;2023-04-25T01:13:30;7.50;99.90
52513;DHT22;38422;53.172;6.974;2023-04-25T01:15:58;7.50;99.90
52513;DHT22;38422;53.172;6.974;2023-04-25T01:18:24;7.50;99.90
52513;DHT22;38422;53.172;6.974;2023-04-25T01:20:54;7.40;99.90
52513;DHT22;38422;53.172;6.974;2023-04-25T01:23:21;7.40;99.90
52513;DHT22;38422;53.172;6.974;2023-04-25T01:25:48;7.40;99.90
52513;DHT22;38422;53.172;6.974;2023-04-25T01:28:17;7.40;99.90
52513;DHT22;38422;53.172;6.974;2023-04-25T01:30:43;7.30;99.90
52513;DHT22;38422;53.172;6.974;2023-04-25T01:33:10;7.30;99.90
52513;DHT22;38422;53.172;6.974;2023-04-25T01:35:36;7.30;99.90
52513;DHT22;38422;53.172;6.974;2023-04-25T01:38:02;7.30;99.90
52513;DHT22;38422;53.172;6.974;2023-04-25T01:40:28;7.30;99.90
52513;DHT22;38422;53.172;6.974;2023-04-25T01:42:54;7.30;99.90
52513;DHT22;38422;53.172;6.974;2023-04-25T01:45:21;7.30;99.90
52513;DHT22;38422;53.172;6.974;2023-04-25T01:47:47;7.30;99.90
52513;DHT22;38422;53.172;6.974;2023-04-25T01:50:16;7.30;99.90
52513;DHT22;38422;53.172;6.974;2023-04-25T01:52:41;7.20;99.90
52513;DHT22;38422;53.172;6.974;2023-04-25T01:55:07;7.20;99.90
52513;DHT22;38422;53.172;6.974;2023-04-25T01:57:33;7.20;99.90
52513;DHT22;38422;53.172;6.974;2023-04-25T02:00:02;7.20;99.90
52513;DHT22;38422;53.172;6.974;2023-04-25T02:02:28;7.20;99.90
52513;DHT22;38422;53.172;6.974;2023-04-25T02:04:54;7.20;99.90
52513;DHT22;38422;53.172;6.974;2023-04-25T02:07:20;7.20;99.90
52513;DHT22;38422;53.172;6.974;2023-04-25T02:09:46;7.20;99.90
52513;DHT22;38422;53.172;6.974;2023-04-25T02:12:12;7.20;99.90
52513;DHT22;38422;53.172;6.974;2023-04-25T02:14:37;7.20;99.90
52513;DHT22;38422;53.172;6.974;2023-04-25T02:17:03;7.20;99.90
52513;DHT22;38422;53.172;6.974;2023-04-25T02:19:29;7.10;99.90
52513;DHT22;38422;53.172;6.974;2023-04-25T02:21:55;7.10;99.90
52513;DHT22;38422;53.172;6.974;2023-04-25T02:24:22;7.10;99.90
52513;DHT22;38422;53.172;6.974;2023-04-25T02:26:48;7.10;99.90
52513;DHT22;38422;53.172;6.974;2023-04-25T02:29:15;7.10;99.90
52513;DHT22;38422;53.172;6.974;2023-04-25T02:31:41;7.10;99.90
52513;DHT22;38422;53.172;6.974;2023-04-25T02:34:06;7.10;99.90
52513;DHT22;38422;53.172;6.974;2023-04-25T02:36:32;7.10;99.90
52513;DHT22;38422;53.172;6.974;2023-04-25T02:39:00;7.10;99.90
52513;DHT22;38422;53.172;6.974;2023-04-25T02:41:26;7.10;99.90
52513;DHT22;38422;53.172;6.974;2023-04-25T02:43:52;7.00;99.90
52513;DHT22;38422;53.172;6.974;2023-04-25T02:46:18;7.00;99.90
52513;DHT22;38422;53.172;6.974;2023-04-25T02:48:43;7.00;99.90
52513;DHT22;38422;53.172;6.974;2023-04-25T02:51:09;6.90;99.90
52513;DHT22;38422;53.172;6.974;2023-04-25T02:53:35;6.90;99.90
52513;DHT22;38422;53.172;6.974;2023-04-25T02:56:01;6.90;99.90
52513;DHT22;38422;53.172;6.974;2023-04-25T02:58:27;6.90;99.90
52513;DHT22;38422;53.172;6.974;2023-04-25T03:00:53;6.80;99.90
52513;DHT22;38422;53.172;6.974;2023-04-25T03:03:19;6.80;99.90
52513;DHT22;38422;53.172;6.974;2023-04-25T03:05:50;6.80;99.90
52513;DHT22;38422;53.172;6.974;2023-04-25T03:08:16;6.80;99.90
52513;DHT22;38422;53.172;6.974;2023-04-25T03:10:43;6.70;99.90
52513;DHT22;38422;53.172;6.974;2023-04-25T03:13:09;6.70;99.90
52513;DHT22;38422;53.172;6.974;2023-04-25T03:15:35;6.70;99.90
52513;DHT22;38422;53.172;6.974;2023-04-25T03:18:01;6.70;99.90
52513;DHT22;38422;53.172;6.974;2023-04-25T03:20:27;6.70;99.90
52513;DHT22;38422;53.172;6.974;2023-04-25T03:22:53;6.60;99.90
52513;DHT22;38422;53.172;6.974;2023-04-25T03:25:18;6.60;99.90
52513;DHT22;38422;53.172;6.974;2023-04-25T03:27:44;6.60;99.90
52513;DHT22;38422;53.172;6.974;2023-04-25T03:30:10;6.60;99.90
52513;DHT22;38422;53.172;6.974;2023-04-25T03:32:36;6.60;99.90
52513;DHT22;38422;53.172;6.974;2023-04-25T03:35:02;6.50;99.90
52513;DHT22;38422;53.172;6.974;2023-04-25T03:37:28;6.40;99.90
52513;DHT22;38422;53.172;6.974;2023-04-25T03:39:54;6.40;99.90
52513;DHT22;38422;53.172;6.974;2023-04-25T03:42:20;6.50;99.90
52513;DHT22;38422;53.172;6.974;2023-04-25T03:44:48;6.40;99.90
52513;DHT22;38422;53.172;6.974;2023-04-25T03:47:14;6.40;99.90
52513;DHT22;38422;53.172;6.974;2023-04-25T03:49:41;6.40;99.90
52513;DHT22;38422;53.172;6.974;2023-04-25T03:52:07;6.40;99.90
52513;DHT22;38422;53.172;6.974;2023-04-25T03:54:32;6.40;99.90
52513;DHT22;38422;53.172;6.974;2023-04-25T03:56:58;6.40;99.90
52513;DHT22;38422;53.172;6.974;2023-04-25T03:59:24;6.30;99.90
52513;DHT22;38422;53.172;6.974;2023-04-25T04:01:51;6.30;99.90
52513;DHT22;38422;53.172;6.974;2023-04-25T04:04:17;6.30;99.90
52513;DHT22;38422;53.172;6.974;2023-04-25T04:06:43;6.30;99.90
52513;DHT22;38422;53.172;6.974;2023-04-25T04:09:09;6.20;99.90
52513;DHT22;38422;53.172;6.974;2023-04-25T04:11:39;6.20;99.90
52513;DHT22;38422;53.172;6.974;2023-04-25T04:14:06;6.20;99.90
52513;DHT22;38422;53.172;6.974;2023-04-25T04:16:32;6.10;99.90
52513;DHT22;38422;53.172;6.974;2023-04-25T04:18:58;6.10;99.90
52513;DHT22;38422;53.172;6.974;2023-04-25T04:21:23;6.10;99.90
52513;DHT22;38422;53.172;6.974;2023-04-25T04:23:49;6.00;99.90
52513;DHT22;38422;53.172;6.974;2023-04-25T04:26:15;6.00;99.90
52513;DHT22;38422;53.172;6.974;2023-04-25T04:28:44;6.00;99.90
52513;DHT22;38422;53.172;6.974;2023-04-25T04:31:10;6.10;99.90
52513;DHT22;38422;53.172;6.974;2023-04-25T04:33:37;6.10;99.90
52513;DHT22;38422;53.172;6.974;2023-04-25T04:36:03;6.10;99.90
52513;DHT22;38422;53.172;6.974;2023-04-25T04:38:30;6.10;99.90
52513;DHT22;38422;53.172;6.974;2023-04-25T04:40:55;6.20;99.90
52513;DHT22;38422;53.172;6.974;2023-04-25T04:43:21;6.20;99.90
52513;DHT22;38422;53.172;6.974;2023-04-25T04:45:48;6.20;99.90
52513;DHT22;38422;53.172;6.974;2023-04-25T04:48:16;6.20;99.90
52513;DHT22;38422;53.172;6.974;2023-04-25T04:50:43;6.20;99.90
52513;DHT22;38422;53.172;6.974;2023-04-25T04:53:11;6.20;99.90
52513;DHT22;38422;53.172;6.974;2023-04-25T04:55:37;6.10;99.90
52513;DHT22;38422;53.172;6.974;2023-04-25T04:58:02;6.10;99.90
52513;DHT22;38422;53.172;6.974;2023-04-25T05:00:28;6.10;99.90
52513;DHT22;38422;53.172;6.974;2023-04-25T05:02:55;6.10;99.90
52513;DHT22;38422;53.172;6.974;2023-04-25T05:05:21;6.20;99.90
52513;DHT22;38422;53.172;6.974;2023-04-25T05:07:46;6.20;99.90
52513;DHT22;38422;53.172;6.974;2023-04-25T05:10:12;6.20;99.90
52513;DHT22;38422;53.172;6.974;2023-04-25T05:12:38;6.20;99.90
52513;DHT22;38422;53.172;6.974;2023-04-25T05:15:04;6.20;99.90
52513;DHT22;38422;53.172;6.974;2023-04-25T05:17:30;6.20;99.90
52513;DHT22;38422;53.172;6.974;2023-04-25T05:19:56;6.20;99.90
52513;DHT22;38422;53.172;6.974;2023-04-25T05:22:22;6.20;99.90
52513;DHT22;38422;53.172;6.974;2023-04-25T05:24:48;6.30;99.90
52513;DHT22;38422;53.172;6.974;2023-04-25T05:27:16;6.30;99.90
52513;DHT22;38422;53.172;6.974;2023-04-25T05:29:42;6.40;99.90
52513;DHT22;38422;53.172;6.974;2023-04-25T05:32:08;6.50;99.90
52513;DHT22;38422;53.172;6.974;2023-04-25T05:34:35;6.50;99.90
52513;DHT22;38422;53.172;6.974;2023-04-25T05:37:00;6.50;99.90
52513;DHT22;38422;53.172;6.974;2023-04-25T05:39:26;6.50;99.90
52513;DHT22;38422;53.172;6.974;2023-04-25T05:41:52;6.40;99.90
52513;DHT22;38422;53.172;6.974;2023-04-25T05:44:18;6.30;99.90
52513;DHT22;38422;53.172;6.974;2023-04-25T05:46:44;6.30;99.90
52513;DHT22;38422;53.172;6.974;2023-04-25T05:49:10;6.30;99.90
52513;DHT22;38422;53.172;6.974;2023-04-25T05:51:36;6.30;99.90
52513;DHT22;38422;53.172;6.974;2023-04-25T05:54:02;6.30;99.90
52513;DHT22;38422;53.172;6.974;2023-04-25T05:56:28;6.30;99.90
52513;DHT22;38422;53.172;6.974;2023-04-25T05:58:53;6.30;99.90
52513;DHT22;38422;53.172;6.974;2023-04-25T06:01:19;6.30;99.90
52513;DHT22;38422;53.172;6.974;2023-04-25T06:03:45;6.30;99.90
52513;DHT22;38422;53.172;6.974;2023-04-25T06:06:11;6.40;99.90
52513;DHT22;38422;53.172;6.974;2023-04-25T06:08:37;6.40;99.90
52513;DHT22;38422;53.172;6.974;2023-04-25T06:11:04;6.50;99.90
52513;DHT22;38422;53.172;6.974;2023-04-25T06:13:30;6.50;99.90
52513;DHT22;38422;53.172;6.974;2023-04-25T06:15:55;6.60;99.90
52513;DHT22;38422;53.172;6.974;2023-04-25T06:18:21;6.60;99.90
52513;DHT22;38422;53.172;6.974;2023-04-25T06:20:47;6.70;99.90
52513;DHT22;38422;53.172;6.974;2023-04-25T06:23:12;6.80;99.90
52513;DHT22;38422;53.172;6.974;2023-04-25T06:25:38;6.90;99.90
52513;DHT22;38422;53.172;6.974;2023-04-25T06:28:04;6.90;99.90
52513;DHT22;38422;53.172;6.974;2023-04-25T06:30:30;6.90;99.90
52513;DHT22;38422;53.172;6.974;2023-04-25T06:32:55;7.00;99.90
52513;DHT22;38422;53.172;6.974;2023-04-25T06:35:21;7.00;99.90
52513;DHT22;38422;53.172;6.974;2023-04-25T06:37:47;7.10;99.90
52513;DHT22;38422;53.172;6.974;2023-04-25T06:40:12;7.10;99.90
52513;DHT22;38422;53.172;6.974;2023-04-25T06:42:38;7.10;99.90
52513;DHT22;38422;53.172;6.974;2023-04-25T06:45:04;7.00;99.90
52513;DHT22;38422;53.172;6.974;2023-04-25T06:47:30;7.00;99.90
52513;DHT22;38422;53.172;6.974;2023-04-25T06:49:56;7.00;99.90
52513;DHT22;38422;53.172;6.974;2023-04-25T06:52:21;7.00;99.90
52513;DHT22;38422;53.172;6.974;2023-04-25T06:54:47;7.00;99.90
52513;DHT22;38422;53.172;6.974;2023-04-25T06:57:13;6.90;99.90
52513;DHT22;38422;53.172;6.974;2023-04-25T06:59:39;7.00;99.90
52513;DHT22;38422;53.172;6.974;2023-04-25T07:02:05;7.00;99.90
52513;DHT22;38422;53.172;6.974;2023-04-25T07:04:31;7.00;99.90
52513;DHT22;38422;53.172;6.974;2023-04-25T07:06:57;7.10;99.90
52513;DHT22;38422;53.172;6.974;2023-04-25T07:09:23;7.10;99.90
52513;DHT22;38422;53.172;6.974;2023-04-25T07:11:48;7.20;99.90
52513;DHT22;38422;53.172;6.974;2023-04-25T07:14:14;7.30;99.90
52513;DHT22;38422;53.172;6.974;2023-04-25T07:16:40;7.40;99.90
52513;DHT22;38422;53.172;6.974;2023-04-25T07:19:06;7.50;99.90
52513;DHT22;38422;53.172;6.974;2023-04-25T07:21:32;7.40;99.90
52513;DHT22;38422;53.172;6.974;2023-04-25T07:23:58;7.40;99.90
52513;DHT22;38422;53.172;6.974;2023-04-25T07:26:24;7.30;99.90
52513;DHT22;38422;53.172;6.974;2023-04-25T07:28:50;7.40;99.90
52513;DHT22;38422;53.172;6.974;2023-04-25T07:31:19;7.50;99.90
52513;DHT22;38422;53.172;6.974;2023-04-25T07:33:45;7.60;99.90
52513;DHT22;38422;53.172;6.974;2023-04-25T07:36:11;7.60;99.90
52513;DHT22;38422;53.172;6.974;2023-04-25T07:38:38;7.70;99.90
52513;DHT22;38422;53.172;6.974;2023-04-25T07:41:04;7.70;99.90
52513;DHT22;38422;53.172;6.974;2023-04-25T07:43:30;7.80;99.90
52513;DHT22;38422;53.172;6.974;2023-04-25T07:45:56;7.80;99.90
52513;DHT22;38422;53.172;6.974;2023-04-25T07:48:22;7.80;99.90
52513;DHT22;38422;53.172;6.974;2023-04-25T07:50:48;7.80;99.90
52513;DHT22;38422;53.172;6.974;2023-04-25T07:53:14;7.80;99.90
52513;DHT22;38422;53.172;6.974;2023-04-25T07:55:40;7.80;99.90
52513;DHT22;38422;53.172;6.974;2023-04-25T07:58:07;7.80;99.90
52513;DHT22;38422;53.172;6.974;2023-04-25T08:00:33;7.80;99.90
52513;DHT22;38422;53.172;6.974;2023-04-25T08:02:58;7.90;99.90
52513;DHT22;38422;53.172;6.974;2023-04-25T08:05:24;8.00;99.90
52513;DHT22;38422;53.172;6.974;2023-04-25T08:07:50;8.10;99.90
52513;DHT22;38422;53.172;6.974;2023-04-25T08:10:16;8.40;99.90
52513;DHT22;38422;53.172;6.974;2023-04-25T08:12:41;8.50;99.90
52513;DHT22;38422;53.172;6.974;2023-04-25T08:15:08;8.60;99.90
52513;DHT22;38422;53.172;6.974;2023-04-25T08:17:34;8.70;99.90
52513;DHT22;38422;53.172;6.974;2023-04-25T08:20:00;8.80;99.90
52513;DHT22;38422;53.172;6.974;2023-04-25T08:22:26;8.90;99.90
52513;DHT22;38422;53.172;6.974;2023-04-25T08:24:51;8.80;99.90
52513;DHT22;38422;53.172;6.974;2023-04-25T08:27:18;8.80;99.90
52513;DHT22;38422;53.172;6.974;2023-04-25T08:29:44;8.70;99.90
52513;DHT22;38422;53.172;6.974;2023-04-25T08:32:09;8.60;99.90
52513;DHT22;38422;53.172;6.974;2023-04-25T08:34:35;8.40;99.90
52513;DHT22;38422;53.172;6.974;2023-04-25T08:37:02;8.50;99.90
52513;DHT22;38422;53.172;6.974;2023-04-25T08:39:29;8.70;99.90
52513;DHT22;38422;53.172;6.974;2023-04-25T08:41:56;8.70;99.90
52513;DHT22;38422;53.172;6.974;2023-04-25T08:44:22;8.60;99.90
52513;DHT22;38422;53.172;6.974;2023-04-25T08:46:49;8.40;99.90
52513;DHT22;38422;53.172;6.974;2023-04-25T08:49:16;8.20;99.90
52513;DHT22;38422;53.172;6.974;2023-04-25T08:51:47;8.10;99.90
52513;DHT22;38422;53.172;6.974;2023-04-25T08:54:13;8.10;99.90
52513;DHT22;38422;53.172;6.974;2023-04-25T08:56:44;8.10;99.90
52513;DHT22;38422;53.172;6.974;2023-04-25T08:59:12;8.20;99.90
52513;DHT22;38422;53.172;6.974;2023-04-25T09:01:37;8.30;99.90
52513;DHT22;38422;53.172;6.974;2023-04-25T09:04:03;8.50;99.90
52513;DHT22;38422;53.172;6.974;2023-04-25T09:06:30;8.60;99.90
52513;DHT22;38422;53.172;6.974;2023-04-25T09:09:07;8.70;99.90
52513;DHT22;38422;53.172;6.974;2023-04-25T09:11:34;8.80;99.90
52513;DHT22;38422;53.172;6.974;2023-04-25T09:14:18;8.90;99.90
52513;DHT22;38422;53.172;6.974;2023-04-25T09:17:07;9.00;99.90
52513;DHT22;38422;53.172;6.974;2023-04-25T09:19:36;9.20;99.90
52513;DHT22;38422;53.172;6.974;2023-04-25T09:22:05;9.50;99.90
52513;DHT22;38422;53.172;6.974;2023-04-25T09:24:35;9.70;99.90
52513;DHT22;38422;53.172;6.974;2023-04-25T09:27:06;9.90;99.90
52513;DHT22;38422;53.172;6.974;2023-04-25T09:29:32;10.10;99.90
52513;DHT22;38422;53.172;6.974;2023-04-25T09:34:53;10.50;99.90
52513;DHT22;38422;53.172;6.974;2023-04-25T09:37:24;10.50;99.90
52513;DHT22;38422;53.172;6.974;2023-04-25T09:40:00;10.60;99.90
52513;DHT22;38422;53.172;6.974;2023-04-25T09:42:28;10.90;99.90
52513;DHT22;38422;53.172;6.974;2023-04-25T09:44:57;11.30;99.90
52513;DHT22;38422;53.172;6.974;2023-04-25T09:47:25;11.60;99.90
52513;DHT22;38422;53.172;6.974;2023-04-25T09:49:51;11.90;99.90
52513;DHT22;38422;53.172;6.974;2023-04-25T09:52:19;11.90;99.90
52513;DHT22;38422;53.172;6.974;2023-04-25T09:54:46;11.60;99.90
52513;DHT22;38422;53.172;6.974;2023-04-25T09:57:15;11.80;99.90
52513;DHT22;38422;53.172;6.974;2023-04-25T09:59:52;12.10;99.90
52513;DHT22;38422;53.172;6.974;2023-04-25T10:02:21;12.10;99.90
52513;DHT22;38422;53.172;6.974;2023-04-25T10:04:49;11.90;99.90
52513;DHT22;38422;53.172;6.974;2023-04-25T10:07:18;11.70;99.90
52513;DHT22;38422;53.172;6.974;2023-04-25T10:09:49;11.50;99.90
52513;DHT22;38422;53.172;6.974;2023-04-25T10:12:17;11.40;99.90
52513;DHT22;38422;53.172;6.974;2023-04-25T10:14:44;11.40;99.90
52513;DHT22;38422;53.172;6.974;2023-04-25T10:17:10;11.70;99.90
52513;DHT22;38422;53.172;6.974;2023-04-25T10:19:37;12.00;99.90
52513;DHT22;38422;53.172;6.974;2023-04-25T10:22:10;12.30;99.90
52513;DHT22;38422;53.172;6.974;2023-04-25T10:24:38;12.60;99.90
52513;DHT22;38422;53.172;6.974;2023-04-25T10:27:04;12.80;99.90
52513;DHT22;38422;53.172;6.974;2023-04-25T10:29:31;13.00;98.70
52513;DHT22;38422;53.172;6.974;2023-04-25T10:31:57;13.10;98.30
52513;DHT22;38422;53.172;6.974;2023-04-25T10:34:44;13.30;98.40
52513;DHT22;38422;53.172;6.974;2023-04-25T10:37:14;13.60;95.80
52513;DHT22;38422;53.172;6.974;2023-04-25T10:39:41;13.40;97.10
52513;DHT22;38422;53.172;6.974;2023-04-25T10:42:07;13.10;97.10
52513;DHT22;38422;53.172;6.974;2023-04-25T10:44:37;12.70;98.20
52513;DHT22;38422;53.172;6.974;2023-04-25T10:47:03;12.10;98.80
52513;DHT22;38422;53.172;6.974;2023-04-25T10:49:41;11.50;99.30
52513;DHT22;38422;53.172;6.974;2023-04-25T10:52:18;11.20;99.90
52513;DHT22;38422;53.172;6.974;2023-04-25T10:54:51;10.80;99.90
52513;DHT22;38422;53.172;6.974;2023-04-25T10:57:31;10.50;99.90
52513;DHT22;38422;53.172;6.974;2023-04-25T11:02:42;10.20;99.90
52513;DHT22;38422;53.172;6.974;2023-04-25T11:05:14;10.20;99.90
52513;DHT22;38422;53.172;6.974;2023-04-25T11:07:53;10.50;99.90
52513;DHT22;38422;53.172;6.974;2023-04-25T11:10:28;11.10;99.90
52513;DHT22;38422;53.172;6.974;2023-04-25T11:12:54;11.60;99.90
52513;DHT22;38422;53.172;6.974;2023-04-25T11:15:20;12.10;99.90
52513;DHT22;38422;53.172;6.974;2023-04-25T11:17:46;12.70;99.90
52513;DHT22;38422;53.172;6.974;2023-04-25T11:20:13;13.20;99.90
52513;DHT22;38422;53.172;6.974;2023-04-25T11:22:40;13.20;99.30
52513;DHT22;38422;53.172;6.974;2023-04-25T11:25:10;12.70;99.90
52513;DHT22;38422;53.172;6.974;2023-04-25T11:27:51;12.20;99.90
52513;DHT22;38422;53.172;6.974;2023-04-25T11:30:18;11.70;99.90
52513;DHT22;38422;53.172;6.974;2023-04-25T11:32:44;11.40;99.90
52513;DHT22;38422;53.172;6.974;2023-04-25T11:35:11;11.40;99.90
52513;DHT22;38422;53.172;6.974;2023-04-25T11:37:39;11.60;99.90
52513;DHT22;38422;53.172;6.974;2023-04-25T11:40:06;11.70;99.90
52513;DHT22;38422;53.172;6.974;2023-04-25T11:42:32;11.90;99.90
52513;DHT22;38422;53.172;6.974;2023-04-25T11:44:59;12.20;99.90
52513;DHT22;38422;53.172;6.974;2023-04-25T11:47:32;12.70;99.90
52513;DHT22;38422;53.172;6.974;2023-04-25T11:49:59;13.30;99.30
52513;DHT22;38422;53.172;6.974;2023-04-25T11:52:45;13.70;98.70
52513;DHT22;38422;53.172;6.974;2023-04-25T11:55:16;14.10;97.60
52513;DHT22;38422;53.172;6.974;2023-04-25T11:57:44;14.40;95.00
52513;DHT22;38422;53.172;6.974;2023-04-25T12:00:14;14.70;95.60
52513;DHT22;38422;53.172;6.974;2023-04-25T12:02:46;15.00;94.90
52513;DHT22;38422;53.172;6.974;2023-04-25T12:05:14;15.40;94.60
52513;DHT22;38422;53.172;6.974;2023-04-25T12:07:41;15.90;94.70
52513;DHT22;38422;53.172;6.974;2023-04-25T12:10:10;16.00;93.80
52513;DHT22;38422;53.172;6.974;2023-04-25T12:12:37;15.70;92.90
52513;DHT22;38422;53.172;6.974;2023-04-25T12:15:13;15.10;92.80
52513;DHT22;38422;53.172;6.974;2023-04-25T12:17:47;14.70;92.90
52513;DHT22;38422;53.172;6.974;2023-04-25T12:20:17;14.90;93.60
52513;DHT22;38422;53.172;6.974;2023-04-25T12:22:46;14.70;93.30
52513;DHT22;38422;53.172;6.974;2023-04-25T12:33:22;14.30;91.90
52513;DHT22;38422;53.172;6.974;2023-04-25T12:35:48;14.50;92.60
52513;DHT22;38422;53.172;6.974;2023-04-25T12:38:30;14.30;92.40
52513;DHT22;38422;53.172;6.974;2023-04-25T12:40:57;13.80;92.30
52513;DHT22;38422;53.172;6.974;2023-04-25T12:43:23;13.40;92.60
52513;DHT22;38422;53.172;6.974;2023-04-25T12:45:50;12.70;93.00
52513;DHT22;38422;53.172;6.974;2023-04-25T12:48:17;11.90;93.90
52513;DHT22;38422;53.172;6.974;2023-04-25T12:50:43;11.50;93.80
52513;DHT22;38422;53.172;6.974;2023-04-25T12:53:09;11.30;94.80
52513;DHT22;38422;53.172;6.974;2023-04-25T12:55:35;11.40;95.70
52513;DHT22;38422;53.172;6.974;2023-04-25T12:58:01;11.80;96.80
52513;DHT22;38422;53.172;6.974;2023-04-25T13:00:28;12.40;96.70
52513;DHT22;38422;53.172;6.974;2023-04-25T13:02:54;12.70;96.60
52513;DHT22;38422;53.172;6.974;2023-04-25T13:05:20;12.80;95.70
52513;DHT22;38422;53.172;6.974;2023-04-25T13:07:46;12.90;95.30
52513;DHT22;38422;53.172;6.974;2023-04-25T13:10:11;13.40;95.70
52513;DHT22;38422;53.172;6.974;2023-04-25T13:12:37;13.90;94.90
52513;DHT22;38422;53.172;6.974;2023-04-25T13:15:03;14.00;93.70
52513;DHT22;38422;53.172;6.974;2023-04-25T13:17:29;13.90;93.20
52513;DHT22;38422;53.172;6.974;2023-04-25T13:19:55;13.70;93.00
52513;DHT22;38422;53.172;6.974;2023-04-25T13:22:21;14.00;92.90
52513;DHT22;38422;53.172;6.974;2023-04-25T13:24:46;14.40;92.90
52513;DHT22;38422;53.172;6.974;2023-04-25T13:27:13;14.90;93.00
52513;DHT22;38422;53.172;6.974;2023-04-25T13:29:38;15.30;92.30
52513;DHT22;38422;53.172;6.974;2023-04-25T13:32:06;15.20;92.00
52513;DHT22;38422;53.172;6.974;2023-04-25T13:34:32;15.00;92.20
52513;DHT22;38422;53.172;6.974;2023-04-25T13:36:58;14.80;92.50
52513;DHT22;38422;53.172;6.974;2023-04-25T13:39:24;14.20;92.00
52513;DHT22;38422;53.172;6.974;2023-04-25T13:41:50;13.60;93.10
52513;DHT22;38422;53.172;6.974;2023-04-25T13:44:16;13.00;94.30
52513;DHT22;38422;53.172;6.974;2023-04-25T13:46:41;12.50;95.00
52513;DHT22;38422;53.172;6.974;2023-04-25T13:49:07;12.20;95.60
52513;DHT22;38422;53.172;6.974;2023-04-25T13:51:33;12.20;96.80
52513;DHT22;38422;53.172;6.974;2023-04-25T13:53:59;12.30;96.80
52513;DHT22;38422;53.172;6.974;2023-04-25T13:56:25;12.40;97.60
52513;DHT22;38422;53.172;6.974;2023-04-25T13:58:51;12.50;97.90
52513;DHT22;38422;53.172;6.974;2023-04-25T14:01:17;12.40;98.30
52513;DHT22;38422;53.172;6.974;2023-04-25T14:03:44;12.30;98.00
52513;DHT22;38422;53.172;6.974;2023-04-25T14:06:09;12.10;98.00
52513;DHT22;38422;53.172;6.974;2023-04-25T14:08:36;12.00;98.20
52513;DHT22;38422;53.172;6.974;2023-04-25T14:11:02;12.00;98.90
52513;DHT22;38422;53.172;6.974;2023-04-25T14:13:28;12.20;99.30
52513;DHT22;38422;53.172;6.974;2023-04-25T14:15:54;12.50;98.20
52513;DHT22;38422;53.172;6.974;2023-04-25T14:18:20;12.80;96.30
52513;DHT22;38422;53.172;6.974;2023-04-25T14:20:46;13.10;96.30
52513;DHT22;38422;53.172;6.974;2023-04-25T14:23:12;13.50;95.30
52513;DHT22;38422;53.172;6.974;2023-04-25T14:25:38;14.00;95.50
52513;DHT22;38422;53.172;6.974;2023-04-25T14:28:03;14.40;95.30
52513;DHT22;38422;53.172;6.974;2023-04-25T14:30:29;14.90;95.00
52513;DHT22;38422;53.172;6.974;2023-04-25T14:32:55;15.30;94.20
52513;DHT22;38422;53.172;6.974;2023-04-25T14:35:21;15.50;91.90
52513;DHT22;38422;53.172;6.974;2023-04-25T14:37:46;15.40;91.50
52513;DHT22;38422;53.172;6.974;2023-04-25T14:40:13;15.00;90.60
52513;DHT22;38422;53.172;6.974;2023-04-25T14:42:40;14.40;90.80
52513;DHT22;38422;53.172;6.974;2023-04-25T14:45:07;14.30;91.50
52513;DHT22;38422;53.172;6.974;2023-04-25T14:47:36;14.20;91.60
52513;DHT22;38422;53.172;6.974;2023-04-25T14:50:02;14.00;90.90
52513;DHT22;38422;53.172;6.974;2023-04-25T14:52:28;14.00;90.90
52513;DHT22;38422;53.172;6.974;2023-04-25T14:54:55;14.20;91.70
52513;DHT22;38422;53.172;6.974;2023-04-25T14:57:20;14.30;92.30
52513;DHT22;38422;53.172;6.974;2023-04-25T14:59:46;14.30;91.80
52513;DHT22;38422;53.172;6.974;2023-04-25T15:02:12;14.10;91.30
52513;DHT22;38422;53.172;6.974;2023-04-25T15:04:38;14.20;91.50
52513;DHT22;38422;53.172;6.974;2023-04-25T15:07:04;14.40;90.70
52513;DHT22;38422;53.172;6.974;2023-04-25T15:09:30;14.60;90.20
52513;DHT22;38422;53.172;6.974;2023-04-25T15:11:57;14.60;88.20
52513;DHT22;38422;53.172;6.974;2023-04-25T15:14:23;14.50;87.20
52513;DHT22;38422;53.172;6.974;2023-04-25T15:16:49;14.10;88.30
52513;DHT22;38422;53.172;6.974;2023-04-25T15:19:15;13.70;89.50
52513;DHT22;38422;53.172;6.974;2023-04-25T15:21:41;13.40;90.50
52513;DHT22;38422;53.172;6.974;2023-04-25T15:24:07;13.40;91.60
52513;DHT22;38422;53.172;6.974;2023-04-25T15:26:33;13.30;92.20
52513;DHT22;38422;53.172;6.974;2023-04-25T15:28:58;13.10;92.70
52513;DHT22;38422;53.172;6.974;2023-04-25T15:31:24;13.00;93.50
52513;DHT22;38422;53.172;6.974;2023-04-25T15:33:50;12.90;93.80
52513;DHT22;38422;53.172;6.974;2023-04-25T15:36:16;13.00;94.40
52513;DHT22;38422;53.172;6.974;2023-04-25T15:38:43;13.10;93.80
52513;DHT22;38422;53.172;6.974;2023-04-25T15:41:09;12.90;92.90
52513;DHT22;38422;53.172;6.974;2023-04-25T15:43:35;12.60;93.20
52513;DHT22;38422;53.172;6.974;2023-04-25T15:46:06;12.50;93.70
52513;DHT22;38422;53.172;6.974;2023-04-25T15:48:33;12.60;93.90
52513;DHT22;38422;53.172;6.974;2023-04-25T15:50:58;13.00;93.30
52513;DHT22;38422;53.172;6.974;2023-04-25T15:53:24;13.10;92.40
52513;DHT22;38422;53.172;6.974;2023-04-25T15:55:50;13.20;92.20
52513;DHT22;38422;53.172;6.974;2023-04-25T15:58:16;13.20;92.10
52513;DHT22;38422;53.172;6.974;2023-04-25T16:00:41;13.10;92.10
52513;DHT22;38422;53.172;6.974;2023-04-25T16:03:07;13.00;91.70